sensor_id;sensor_type;location;lat;lon;timestamp;P1;durP1;ratioP1;P2;durP2;ratioP2
4527;SDS011;62320;51.520;6.818;2023-02-12T00:08:55;54.53;;;20.67;;
4527;SDS011;62320;51.520;6.818;2023-02-12T00:18:57;55.30;;;20.67;;
4527;SDS011;62320;51.520;6.818;2023-02-12T00:29:00;49.53;;;19.23;;
4527;SDS011;62320;51.520;6.818;2023-02-12T00:39:02;46.20;;;16.20;;
4527;SDS011;62320;51.520;6.818;2023-02-12T00:49:04;54.22;;;19.50;;
4527;SDS011;62320;51.520;6.818;2023-02-12T00:59:06;52.60;;;19.27;;
4527;SDS011;62320;51.520;6.818;2023-02-12T01:09:08;47.77;;;19.17;;
4527;SDS011;62320;51.520;6.818;2023-02-12T01:19:10;51.37;;;20.77;;
4527;SDS011;62320;51.520;6.818;2023-02-12T01:29:12;51.85;;;20.08;;
4527;SDS011;62320;51.520;6.818;2023-02-12T01:39:14;47.60;;;18.83;;
4527;SDS011;62320;51.520;6.818;2023-02-12T01:49:17;50.27;;;18.80;;
4527;SDS011;62320;51.520;6.818;2023-02-12T01:59:24;54.17;;;19.38;;
4527;SDS011;62320;51.520;6.818;2023-02-12T02:09:27;51.97;;;19.53;;
4527;SDS011;62320;51.520;6.818;2023-02-12T02:40:22;52.30;;;19.55;;
4527;SDS011;62320;51.520;6.818;2023-02-12T02:50:30;46.87;;;18.83;;
4527;SDS011;62320;51.520;6.818;2023-02-12T03:00:36;51.50;;;19.27;;
4527;SDS011;62320;51.520;6.818;2023-02-12T03:10:42;49.83;;;18.70;;
4527;SDS011;62320;51.520;6.818;2023-02-12T03:20:48;55.47;;;19.87;;
4527;SDS011;62320;51.520;6.818;2023-02-12T03:30:58;50.03;;;19.47;;
4527;SDS011;62320;51.520;6.818;2023-02-12T03:51:37;46.37;;;18.60;;
4527;SDS011;62320;51.520;6.818;2023-02-12T04:01:41;46.80;;;17.70;;
4527;SDS011;62320;51.520;6.818;2023-02-12T04:21:52;47.75;;;17.42;;
4527;SDS011;62320;51.520;6.818;2023-02-12T04:32:21;47.63;;;19.10;;
4527;SDS011;62320;51.520;6.818;2023-02-12T04:42:24;52.67;;;20.63;;
4527;SDS011;62320;51.520;6.818;2023-02-12T04:52:26;54.08;;;20.63;;
4527;SDS011;62320;51.520;6.818;2023-02-12T05:02:27;51.53;;;20.17;;
4527;SDS011;62320;51.520;6.818;2023-02-12T05:12:28;55.37;;;20.80;;
4527;SDS011;62320;51.520;6.818;2023-02-12T05:22:30;58.13;;;21.13;;
4527;SDS011;62320;51.520;6.818;2023-02-12T05:32:31;54.53;;;21.03;;
4527;SDS011;62320;51.520;6.818;2023-02-12T05:42:33;55.77;;;19.83;;
4527;SDS011;62320;51.520;6.818;2023-02-12T05:52:35;59.97;;;20.95;;
4527;SDS011;62320;51.520;6.818;2023-02-12T06:02:36;50.00;;;20.38;;
4527;SDS011;62320;51.520;6.818;2023-02-12T06:12:38;55.97;;;21.70;;
4527;SDS011;62320;51.520;6.818;2023-02-12T06:22:39;52.03;;;19.43;;
4527;SDS011;62320;51.520;6.818;2023-02-12T06:32:40;54.03;;;19.42;;
4527;SDS011;62320;51.520;6.818;2023-02-12T06:42:42;53.63;;;19.70;;
4527;SDS011;62320;51.520;6.818;2023-02-12T06:52:43;55.57;;;20.63;;
4527;SDS011;62320;51.520;6.818;2023-02-12T07:02:50;56.85;;;19.83;;
4527;SDS011;62320;51.520;6.818;2023-02-12T07:12:53;54.07;;;20.17;;
4527;SDS011;62320;51.520;6.818;2023-02-12T07:22:54;57.80;;;21.37;;
4527;SDS011;62320;51.520;6.818;2023-02-12T07:32:56;52.92;;;20.30;;
4527;SDS011;62320;51.520;6.818;2023-02-12T07:42:57;54.63;;;21.73;;
4527;SDS011;62320;51.520;6.818;2023-02-12T07:52:59;52.90;;;20.60;;
4527;SDS011;62320;51.520;6.818;2023-02-12T08:03:00;53.83;;;20.20;;
4527;SDS011;62320;51.520;6.818;2023-02-12T08:13:02;51.08;;;19.80;;
4527;SDS011;62320;51.520;6.818;2023-02-12T08:23:04;51.50;;;20.03;;
4527;SDS011;62320;51.520;6.818;2023-02-12T08:33:05;51.27;;;19.77;;
4527;SDS011;62320;51.520;6.818;2023-02-12T08:43:07;50.45;;;19.00;;
4527;SDS011;62320;51.520;6.818;2023-02-12T08:53:09;49.97;;;18.83;;
4527;SDS011;62320;51.520;6.818;2023-02-12T09:03:10;47.70;;;18.73;;
4527;SDS011;62320;51.520;6.818;2023-02-12T09:13:12;54.45;;;21.20;;
4527;SDS011;62320;51.520;6.818;2023-02-12T09:23:15;53.83;;;20.88;;
4527;SDS011;62320;51.520;6.818;2023-02-12T09:33:16;50.40;;;19.73;;
4527;SDS011;62320;51.520;6.818;2023-02-12T09:53:52;43.45;;;16.55;;
4527;SDS011;62320;51.520;6.818;2023-02-12T10:04:05;39.90;;;15.87;;
4527;SDS011;62320;51.520;6.818;2023-02-12T10:34:43;32.67;;;13.07;;
4527;SDS011;62320;51.520;6.818;2023-02-12T10:44:45;28.23;;;12.43;;
4527;SDS011;62320;51.520;6.818;2023-02-12T10:54:47;27.83;;;11.75;;
4527;SDS011;62320;51.520;6.818;2023-02-12T11:04:50;30.70;;;12.57;;
4527;SDS011;62320;51.520;6.818;2023-02-12T11:25:14;28.03;;;12.00;;
4527;SDS011;62320;51.520;6.818;2023-02-12T11:35:21;29.92;;;12.02;;
4527;SDS011;62320;51.520;6.818;2023-02-12T11:45:42;32.83;;;12.47;;
4527;SDS011;62320;51.520;6.818;2023-02-12T11:55:57;25.57;;;10.67;;
4527;SDS011;62320;51.520;6.818;2023-02-12T12:06:11;36.90;;;13.95;;
4527;SDS011;62320;51.520;6.818;2023-02-12T12:16:40;32.33;;;12.20;;
4527;SDS011;62320;51.520;6.818;2023-02-12T12:27:18;31.07;;;12.17;;
4527;SDS011;62320;51.520;6.818;2023-02-12T12:38:07;28.15;;;11.85;;
4527;SDS011;62320;51.520;6.818;2023-02-12T12:59:10;32.93;;;12.37;;
4527;SDS011;62320;51.520;6.818;2023-02-12T13:19:35;34.13;;;12.75;;
4527;SDS011;62320;51.520;6.818;2023-02-12T13:29:48;30.60;;;11.77;;
4527;SDS011;62320;51.520;6.818;2023-02-12T13:39:55;32.07;;;12.60;;
4527;SDS011;62320;51.520;6.818;2023-02-12T14:10:48;36.50;;;13.47;;
4527;SDS011;62320;51.520;6.818;2023-02-12T15:01:51;35.22;;;13.68;;
4527;SDS011;62320;51.520;6.818;2023-02-12T15:11:55;39.33;;;14.33;;
4527;SDS011;62320;51.520;6.818;2023-02-12T15:22:13;33.27;;;13.67;;
4527;SDS011;62320;51.520;6.818;2023-02-12T15:32:26;31.45;;;12.82;;
4527;SDS011;62320;51.520;6.818;2023-02-12T15:52:36;32.47;;;13.10;;
4527;SDS011;62320;51.520;6.818;2023-02-12T16:02:41;33.20;;;13.07;;
4527;SDS011;62320;51.520;6.818;2023-02-12T16:12:43;35.03;;;13.45;;
4527;SDS011;62320;51.520;6.818;2023-02-12T16:22:46;29.40;;;11.40;;
4527;SDS011;62320;51.520;6.818;2023-02-12T16:32:50;31.37;;;12.53;;
4527;SDS011;62320;51.520;6.818;2023-02-12T16:52:58;30.60;;;12.60;;
4527;SDS011;62320;51.520;6.818;2023-02-12T17:03:01;32.43;;;12.60;;
4527;SDS011;62320;51.520;6.818;2023-02-12T17:13:03;30.70;;;12.82;;
4527;SDS011;62320;51.520;6.818;2023-02-12T17:23:05;30.83;;;12.80;;
4527;SDS011;62320;51.520;6.818;2023-02-12T17:33:07;31.20;;;13.07;;
4527;SDS011;62320;51.520;6.818;2023-02-12T17:43:08;34.90;;;15.00;;
4527;SDS011;62320;51.520;6.818;2023-02-12T17:53:10;41.47;;;15.65;;
4527;SDS011;62320;51.520;6.818;2023-02-12T18:03:22;38.73;;;15.13;;
4527;SDS011;62320;51.520;6.818;2023-02-12T18:13:24;37.73;;;15.00;;
4527;SDS011;62320;51.520;6.818;2023-02-12T18:23:25;36.33;;;14.85;;
4527;SDS011;62320;51.520;6.818;2023-02-12T18:33:27;40.10;;;15.13;;
4527;SDS011;62320;51.520;6.818;2023-02-12T18:43:29;36.03;;;14.97;;
4527;SDS011;62320;51.520;6.818;2023-02-12T18:53:34;36.03;;;14.95;;
4527;SDS011;62320;51.520;6.818;2023-02-12T19:03:36;37.77;;;15.33;;
4527;SDS011;62320;51.520;6.818;2023-02-12T19:13:37;37.77;;;16.63;;
4527;SDS011;62320;51.520;6.818;2023-02-12T19:23:39;40.30;;;16.45;;
4527;SDS011;62320;51.520;6.818;2023-02-12T19:33:41;44.15;;;16.98;;
4527;SDS011;62320;51.520;6.818;2023-02-12T19:43:43;40.17;;;15.90;;
4527;SDS011;62320;51.520;6.818;2023-02-12T19:53:45;39.30;;;15.80;;
4527;SDS011;62320;51.520;6.818;2023-02-12T20:03:48;42.95;;;16.85;;
4527;SDS011;62320;51.520;6.818;2023-02-12T20:13:50;39.97;;;16.10;;
4527;SDS011;62320;51.520;6.818;2023-02-12T20:23:52;41.90;;;16.40;;
4527;SDS011;62320;51.520;6.818;2023-02-12T20:33:55;41.08;;;15.45;;
4527;SDS011;62320;51.520;6.818;2023-02-12T20:43:58;43.63;;;17.00;;
4527;SDS011;62320;51.520;6.818;2023-02-12T20:54:01;42.83;;;16.20;;
4527;SDS011;62320;51.520;6.818;2023-02-12T21:04:04;36.75;;;15.38;;
4527;SDS011;62320;51.520;6.818;2023-02-12T21:14:11;41.58;;;16.27;;
4527;SDS011;62320;51.520;6.818;2023-02-12T21:24:24;39.73;;;16.60;;
4527;SDS011;62320;51.520;6.818;2023-02-12T21:34:26;38.27;;;15.17;;
4527;SDS011;62320;51.520;6.818;2023-02-12T21:44:29;34.67;;;14.23;;
4527;SDS011;62320;51.520;6.818;2023-02-12T21:54:32;35.37;;;14.43;;
4527;SDS011;62320;51.520;6.818;2023-02-12T22:04:34;30.27;;;12.47;;
4527;SDS011;62320;51.520;6.818;2023-02-12T22:14:35;31.42;;;12.23;;
4527;SDS011;62320;51.520;6.818;2023-02-12T22:24:37;32.50;;;12.57;;
4527;SDS011;62320;51.520;6.818;2023-02-12T22:34:38;30.53;;;12.37;;
4527;SDS011;62320;51.520;6.818;2023-02-12T22:44:40;21.67;;;9.38;;
4527;SDS011;62320;51.520;6.818;2023-02-12T22:54:41;30.45;;;11.38;;
4527;SDS011;62320;51.520;6.818;2023-02-12T23:04:42;27.63;;;11.40;;
4527;SDS011;62320;51.520;6.818;2023-02-12T23:14:44;25.60;;;10.93;;
4527;SDS011;62320;51.520;6.818;2023-02-12T23:24:45;25.60;;;10.65;;
4527;SDS011;62320;51.520;6.818;2023-02-12T23:34:47;25.37;;;10.10;;
4527;SDS011;62320;51.520;6.818;2023-02-12T23:44:48;24.23;;;10.00;;
4527;SDS011;62320;51.520;6.818;2023-02-12T23:54:50;25.33;;;10.45;;
